sensor_id;sensor_type;location;lat;lon;timestamp;pressure;altitude;pressure_sealevel;temperature;humidity
5651;BME280;40241;52.684;9.758;2023-04-16T00:02:02;101514.06;;;11.93;62.90
5651;BME280;40241;52.684;9.758;2023-04-16T00:04:28;101507.81;;;11.92;62.76
5651;BME280;40241;52.684;9.758;2023-04-16T00:06:53;101507.47;;;11.85;62.94
5651;BME280;40241;52.684;9.758;2023-04-16T00:09:18;101508.91;;;11.80;62.92
5651;BME280;40241;52.684;9.758;2023-04-16T00:11:44;101511.09;;;11.76;63.15
5651;BME280;40241;52.684;9.758;2023-04-16T00:14:09;101509.97;;;11.68;63.11
5651;BME280;40241;52.684;9.758;2023-04-16T00:16:35;101519.00;;;11.69;63.19
5651;BME280;40241;52.684;9.758;2023-04-16T00:19:00;101513.75;;;11.71;63.21
5651;BME280;40241;52.684;9.758;2023-04-16T00:21:25;101521.00;;;11.68;63.16
5651;BME280;40241;52.684;9.758;2023-04-16T00:23:51;101515.38;;;11.63;63.22
5651;BME280;40241;52.684;9.758;2023-04-16T00:26:16;101518.78;;;11.58;63.08
5651;BME280;40241;52.684;9.758;2023-04-16T00:28:41;101508.19;;;11.51;63.59
5651;BME280;40241;52.684;9.758;2023-04-16T00:31:07;101505.59;;;11.47;63.34
5651;BME280;40241;52.684;9.758;2023-04-16T00:33:32;101503.13;;;11.49;63.23
5651;BME280;40241;52.684;9.758;2023-04-16T00:35:57;101513.59;;;11.45;63.39
5651;BME280;40241;52.684;9.758;2023-04-16T00:38:23;101512.09;;;11.44;63.16
5651;BME280;40241;52.684;9.758;2023-04-16T00:40:48;101513.50;;;11.40;63.33
5651;BME280;40241;52.684;9.758;2023-04-16T00:43:24;101510.47;;;11.38;64.03
5651;BME280;40241;52.684;9.758;2023-04-16T00:45:55;101517.69;;;11.35;63.63
5651;BME280;40241;52.684;9.758;2023-04-16T00:48:20;101511.91;;;11.33;63.57
5651;BME280;40241;52.684;9.758;2023-04-16T00:50:46;101524.16;;;11.32;63.54
5651;BME280;40241;52.684;9.758;2023-04-16T00:53:13;101527.38;;;11.30;63.33
5651;BME280;40241;52.684;9.758;2023-04-16T00:55:38;101530.31;;;11.27;63.25
5651;BME280;40241;52.684;9.758;2023-04-16T00:58:04;101530.31;;;11.27;63.30
5651;BME280;40241;52.684;9.758;2023-04-16T01:00:30;101528.59;;;11.29;63.37
5651;BME280;40241;52.684;9.758;2023-04-16T01:02:55;101527.88;;;11.29;63.33
5651;BME280;40241;52.684;9.758;2023-04-16T01:05:21;101528.81;;;11.26;63.34
5651;BME280;40241;52.684;9.758;2023-04-16T01:07:46;101535.09;;;11.26;63.43
5651;BME280;40241;52.684;9.758;2023-04-16T01:10:11;101527.88;;;11.29;63.29
5651;BME280;40241;52.684;9.758;2023-04-16T01:12:37;101535.44;;;11.34;63.25
5651;BME280;40241;52.684;9.758;2023-04-16T01:15:02;101545.25;;;11.35;63.32
5651;BME280;40241;52.684;9.758;2023-04-16T01:17:28;101544.75;;;11.37;63.06
5651;BME280;40241;52.684;9.758;2023-04-16T01:19:57;101549.50;;;11.36;63.13
5651;BME280;40241;52.684;9.758;2023-04-16T01:22:23;101557.69;;;11.30;63.18
5651;BME280;40241;52.684;9.758;2023-04-16T01:24:48;101560.72;;;11.32;63.24
5651;BME280;40241;52.684;9.758;2023-04-16T01:27:13;101556.63;;;11.28;63.25
5651;BME280;40241;52.684;9.758;2023-04-16T01:29:39;101562.91;;;11.28;63.15
5651;BME280;40241;52.684;9.758;2023-04-16T01:32:04;101559.31;;;11.22;63.29
5651;BME280;40241;52.684;9.758;2023-04-16T01:34:29;101553.22;;;11.18;63.47
5651;BME280;40241;52.684;9.758;2023-04-16T01:36:55;101568.03;;;11.21;63.71
5651;BME280;40241;52.684;9.758;2023-04-16T01:39:20;101567.75;;;11.19;63.27
5651;BME280;40241;52.684;9.758;2023-04-16T01:41:46;101574.59;;;11.09;63.76
5651;BME280;40241;52.684;9.758;2023-04-16T01:44:11;101569.25;;;11.05;63.62
5651;BME280;40241;52.684;9.758;2023-04-16T01:46:37;101571.16;;;10.99;63.72
5651;BME280;40241;52.684;9.758;2023-04-16T01:49:03;101572.69;;;11.00;63.90
5651;BME280;40241;52.684;9.758;2023-04-16T01:51:29;101582.00;;;11.03;64.03
5651;BME280;40241;52.684;9.758;2023-04-16T01:53:55;101580.47;;;11.02;63.80
5651;BME280;40241;52.684;9.758;2023-04-16T01:56:22;101572.97;;;11.02;63.78
5651;BME280;40241;52.684;9.758;2023-04-16T01:58:47;101574.00;;;11.05;63.80
5651;BME280;40241;52.684;9.758;2023-04-16T02:01:13;101583.28;;;11.07;63.75
5651;BME280;40241;52.684;9.758;2023-04-16T02:03:39;101590.81;;;11.07;63.59
5651;BME280;40241;52.684;9.758;2023-04-16T02:06:04;101583.50;;;11.04;63.85
5651;BME280;40241;52.684;9.758;2023-04-16T02:08:30;101577.41;;;11.00;63.72
5651;BME280;40241;52.684;9.758;2023-04-16T02:10:56;101580.81;;;10.95;63.91
5651;BME280;40241;52.684;9.758;2023-04-16T02:13:22;101583.28;;;10.93;64.01
5651;BME280;40241;52.684;9.758;2023-04-16T02:15:48;101588.22;;;10.89;64.21
5651;BME280;40241;52.684;9.758;2023-04-16T02:18:15;101582.72;;;10.89;64.21
5651;BME280;40241;52.684;9.758;2023-04-16T02:20:41;101581.78;;;10.92;64.31
5651;BME280;40241;52.684;9.758;2023-04-16T02:23:07;101584.63;;;10.97;64.26
5651;BME280;40241;52.684;9.758;2023-04-16T02:25:40;101581.69;;;11.01;64.16
5651;BME280;40241;52.684;9.758;2023-04-16T02:28:11;101587.19;;;11.01;64.06
5651;BME280;40241;52.684;9.758;2023-04-16T02:30:37;101581.22;;;11.02;63.94
5651;BME280;40241;52.684;9.758;2023-04-16T02:33:03;101582.16;;;10.99;63.88
5651;BME280;40241;52.684;9.758;2023-04-16T02:35:33;101586.16;;;10.98;64.14
5651;BME280;40241;52.684;9.758;2023-04-16T02:37:59;101585.69;;;11.00;64.00
5651;BME280;40241;52.684;9.758;2023-04-16T02:40:25;101585.38;;;10.98;64.17
5651;BME280;40241;52.684;9.758;2023-04-16T02:42:51;101587.56;;;10.94;64.18
5651;BME280;40241;52.684;9.758;2023-04-16T02:45:17;101584.34;;;10.95;64.16
5651;BME280;40241;52.684;9.758;2023-04-16T02:47:42;101587.84;;;10.96;64.32
5651;BME280;40241;52.684;9.758;2023-04-16T02:50:08;101595.34;;;10.95;64.14
5651;BME280;40241;52.684;9.758;2023-04-16T02:52:33;101591.47;;;11.02;64.32
5651;BME280;40241;52.684;9.758;2023-04-16T02:54:59;101585.09;;;10.96;64.27
5651;BME280;40241;52.684;9.758;2023-04-16T02:57:24;101594.88;;;10.97;64.48
5651;BME280;40241;52.684;9.758;2023-04-16T02:59:50;101591.19;;;11.00;64.31
5651;BME280;40241;52.684;9.758;2023-04-16T03:02:15;101602.28;;;11.05;64.23
5651;BME280;40241;52.684;9.758;2023-04-16T03:04:41;101605.94;;;11.11;63.96
5651;BME280;40241;52.684;9.758;2023-04-16T03:07:06;101609.41;;;11.12;64.15
5651;BME280;40241;52.684;9.758;2023-04-16T03:09:33;101608.50;;;11.15;63.79
5651;BME280;40241;52.684;9.758;2023-04-16T03:11:58;101602.03;;;11.18;64.03
5651;BME280;40241;52.684;9.758;2023-04-16T03:14:23;101602.78;;;11.18;64.04
5651;BME280;40241;52.684;9.758;2023-04-16T03:16:49;101604.81;;;11.18;64.03
5651;BME280;40241;52.684;9.758;2023-04-16T03:19:14;101614.28;;;11.17;64.02
5651;BME280;40241;52.684;9.758;2023-04-16T03:21:39;101615.06;;;11.17;63.87
5651;BME280;40241;52.684;9.758;2023-04-16T03:24:05;101609.53;;;11.17;63.92
5651;BME280;40241;52.684;9.758;2023-04-16T03:26:30;101614.28;;;11.17;63.90
5651;BME280;40241;52.684;9.758;2023-04-16T03:28:55;101614.19;;;11.11;64.14
5651;BME280;40241;52.684;9.758;2023-04-16T03:31:23;101620.91;;;11.10;64.25
5651;BME280;40241;52.684;9.758;2023-04-16T03:33:48;101623.97;;;11.12;63.93
5651;BME280;40241;52.684;9.758;2023-04-16T03:36:13;101611.44;;;11.11;64.34
5651;BME280;40241;52.684;9.758;2023-04-16T03:38:39;101612.78;;;11.16;63.98
5651;BME280;40241;52.684;9.758;2023-04-16T03:41:04;101620.56;;;11.17;63.91
5651;BME280;40241;52.684;9.758;2023-04-16T03:43:29;101615.22;;;11.14;64.09
5651;BME280;40241;52.684;9.758;2023-04-16T03:45:55;101624.44;;;11.11;64.02
5651;BME280;40241;52.684;9.758;2023-04-16T03:48:20;101630.22;;;11.13;64.16
5651;BME280;40241;52.684;9.758;2023-04-16T03:50:46;101618.44;;;11.12;63.88
5651;BME280;40241;52.684;9.758;2023-04-16T03:53:12;101617.97;;;11.14;64.05
5651;BME280;40241;52.684;9.758;2023-04-16T03:55:37;101624.25;;;11.14;64.00
5651;BME280;40241;52.684;9.758;2023-04-16T03:58:03;101623.03;;;11.15;64.06
5651;BME280;40241;52.684;9.758;2023-04-16T04:00:29;101630.81;;;11.17;64.11
5651;BME280;40241;52.684;9.758;2023-04-16T04:02:55;101633.56;;;11.17;63.84
5651;BME280;40241;52.684;9.758;2023-04-16T04:05:20;101634.81;;;11.16;64.01
5651;BME280;40241;52.684;9.758;2023-04-16T04:07:45;101627.19;;;11.11;63.91
5651;BME280;40241;52.684;9.758;2023-04-16T04:10:11;101634.22;;;11.12;64.11
5651;BME280;40241;52.684;9.758;2023-04-16T04:12:36;101621.84;;;11.07;64.12
5651;BME280;40241;52.684;9.758;2023-04-16T04:15:01;101622.63;;;11.08;64.15
5651;BME280;40241;52.684;9.758;2023-04-16T04:17:27;101622.47;;;11.11;64.12
5651;BME280;40241;52.684;9.758;2023-04-16T04:19:52;101630.22;;;11.13;64.26
5651;BME280;40241;52.684;9.758;2023-04-16T04:22:18;101632.41;;;11.09;64.05
5651;BME280;40241;52.684;9.758;2023-04-16T04:24:43;101630.88;;;11.08;63.95
5651;BME280;40241;52.684;9.758;2023-04-16T04:27:09;101639.16;;;11.08;64.03
5651;BME280;40241;52.684;9.758;2023-04-16T04:29:34;101633.63;;;11.08;64.31
5651;BME280;40241;52.684;9.758;2023-04-16T04:31:59;101639.63;;;11.06;64.02
5651;BME280;40241;52.684;9.758;2023-04-16T04:34:25;101634.75;;;11.01;63.98
5651;BME280;40241;52.684;9.758;2023-04-16T04:36:50;101640.75;;;11.00;64.24
5651;BME280;40241;52.684;9.758;2023-04-16T04:39:16;101640.16;;;10.96;64.20
5651;BME280;40241;52.684;9.758;2023-04-16T04:41:41;101648.25;;;10.99;64.26
5651;BME280;40241;52.684;9.758;2023-04-16T04:44:06;101642.25;;;11.01;64.07
5651;BME280;40241;52.684;9.758;2023-04-16T04:46:32;101653.09;;;11.04;64.08
5651;BME280;40241;52.684;9.758;2023-04-16T04:48:57;101651.13;;;11.05;64.14
5651;BME280;40241;52.684;9.758;2023-04-16T04:51:22;101651.13;;;11.05;63.94
5651;BME280;40241;52.684;9.758;2023-04-16T04:53:48;101652.53;;;11.00;64.13
5651;BME280;40241;52.684;9.758;2023-04-16T04:56:13;101659.53;;;11.01;64.19
5651;BME280;40241;52.684;9.758;2023-04-16T04:58:40;101656.03;;;11.01;63.85
5651;BME280;40241;52.684;9.758;2023-04-16T05:01:05;101670.47;;;10.96;63.99
5651;BME280;40241;52.684;9.758;2023-04-16T05:03:31;101663.91;;;10.93;64.24
5651;BME280;40241;52.684;9.758;2023-04-16T05:05:56;101672.91;;;10.94;64.27
5651;BME280;40241;52.684;9.758;2023-04-16T05:08:21;101676.72;;;10.96;64.13
5651;BME280;40241;52.684;9.758;2023-04-16T05:10:47;101673.50;;;10.98;64.03
5651;BME280;40241;52.684;9.758;2023-04-16T05:13:12;101675.19;;;10.95;63.84
5651;BME280;40241;52.684;9.758;2023-04-16T05:15:38;101681.81;;;10.89;64.15
5651;BME280;40241;52.684;9.758;2023-04-16T05:18:03;101685.34;;;10.89;64.08
5651;BME280;40241;52.684;9.758;2023-04-16T05:20:28;101679.84;;;10.89;64.15
5651;BME280;40241;52.684;9.758;2023-04-16T05:22:54;101682.00;;;10.85;64.13
5651;BME280;40241;52.684;9.758;2023-04-16T05:25:19;101685.41;;;10.80;64.18
5651;BME280;40241;52.684;9.758;2023-04-16T05:27:45;101695.47;;;10.83;64.36
5651;BME280;40241;52.684;9.758;2023-04-16T05:30:10;101692.84;;;10.89;64.12
5651;BME280;40241;52.684;9.758;2023-04-16T05:32:38;101699.34;;;11.00;63.99
5651;BME280;40241;52.684;9.758;2023-04-16T05:35:03;101700.41;;;11.03;63.85
5651;BME280;40241;52.684;9.758;2023-04-16T05:37:29;101698.03;;;11.10;63.78
5651;BME280;40241;52.684;9.758;2023-04-16T05:39:54;101699.97;;;11.19;63.71
5651;BME280;40241;52.684;9.758;2023-04-16T05:42:20;101700.81;;;11.25;63.63
5651;BME280;40241;52.684;9.758;2023-04-16T05:44:45;101706.81;;;11.23;63.43
5651;BME280;40241;52.684;9.758;2023-04-16T05:47:10;101711.69;;;11.28;63.41
5651;BME280;40241;52.684;9.758;2023-04-16T05:49:36;101707.00;;;11.20;63.26
5651;BME280;40241;52.684;9.758;2023-04-16T05:52:02;101708.97;;;11.19;63.52
5651;BME280;40241;52.684;9.758;2023-04-16T05:54:28;101720.88;;;11.25;63.60
5651;BME280;40241;52.684;9.758;2023-04-16T05:56:53;101721.63;;;11.26;63.23
5651;BME280;40241;52.684;9.758;2023-04-16T05:59:19;101722.97;;;11.30;63.51
5651;BME280;40241;52.684;9.758;2023-04-16T06:01:44;101723.97;;;11.42;63.24
5651;BME280;40241;52.684;9.758;2023-04-16T06:04:09;101726.41;;;11.40;63.23
5651;BME280;40241;52.684;9.758;2023-04-16T06:06:35;101731.00;;;11.43;63.12
5651;BME280;40241;52.684;9.758;2023-04-16T06:09:01;101731.84;;;11.49;63.05
5651;BME280;40241;52.684;9.758;2023-04-16T06:11:28;101726.75;;;11.57;63.32
5651;BME280;40241;52.684;9.758;2023-04-16T06:13:54;101730.19;;;11.66;63.06
5651;BME280;40241;52.684;9.758;2023-04-16T06:16:19;101739.63;;;11.74;63.04
5651;BME280;40241;52.684;9.758;2023-04-16T06:18:44;101732.59;;;11.73;62.74
5651;BME280;40241;52.684;9.758;2023-04-16T06:21:10;101734.13;;;11.74;62.82
5651;BME280;40241;52.684;9.758;2023-04-16T06:23:35;101735.47;;;11.79;62.69
5651;BME280;40241;52.684;9.758;2023-04-16T06:26:01;101736.69;;;11.78;62.60
5651;BME280;40241;52.684;9.758;2023-04-16T06:28:26;101737.16;;;11.76;62.74
5651;BME280;40241;52.684;9.758;2023-04-16T06:30:51;101762.56;;;11.80;62.75
5651;BME280;40241;52.684;9.758;2023-04-16T06:33:17;101747.44;;;11.90;62.65
5651;BME280;40241;52.684;9.758;2023-04-16T06:35:42;101749.72;;;11.92;62.52
5651;BME280;40241;52.684;9.758;2023-04-16T06:38:07;101749.06;;;11.97;62.70
5651;BME280;40241;52.684;9.758;2023-04-16T06:40:33;101751.06;;;11.96;62.32
5651;BME280;40241;52.684;9.758;2023-04-16T06:42:58;101757.91;;;12.01;62.44
5651;BME280;40241;52.684;9.758;2023-04-16T06:45:24;101758.28;;;12.09;62.33
5651;BME280;40241;52.684;9.758;2023-04-16T06:47:49;101759.81;;;12.10;62.26
5651;BME280;40241;52.684;9.758;2023-04-16T06:50:16;101752.41;;;12.16;62.07
5651;BME280;40241;52.684;9.758;2023-04-16T06:52:41;101762.88;;;12.12;62.05
5651;BME280;40241;52.684;9.758;2023-04-16T06:55:07;101756.19;;;12.03;62.28
5651;BME280;40241;52.684;9.758;2023-04-16T06:57:34;101763.91;;;11.99;62.36
5651;BME280;40241;52.684;9.758;2023-04-16T06:59:59;101756.66;;;12.02;62.32
5651;BME280;40241;52.684;9.758;2023-04-16T07:02:25;101758.84;;;12.13;62.40
5651;BME280;40241;52.684;9.758;2023-04-16T07:04:50;101757.63;;;12.14;62.16
5651;BME280;40241;52.684;9.758;2023-04-16T07:07:17;101773.22;;;12.17;62.30
5651;BME280;40241;52.684;9.758;2023-04-16T07:09:42;101761.03;;;12.23;62.20
5651;BME280;40241;52.684;9.758;2023-04-16T07:12:07;101764.38;;;12.27;61.99
5651;BME280;40241;52.684;9.758;2023-04-16T07:14:33;101780.75;;;12.31;62.24
5651;BME280;40241;52.684;9.758;2023-04-16T07:16:58;101765.50;;;12.35;61.89
5651;BME280;40241;52.684;9.758;2023-04-16T07:19:24;101763.53;;;12.36;61.99
5651;BME280;40241;52.684;9.758;2023-04-16T07:21:50;101779.97;;;12.45;61.97
5651;BME280;40241;52.684;9.758;2023-04-16T07:24:15;101769.69;;;12.45;61.79
5651;BME280;40241;52.684;9.758;2023-04-16T07:26:41;101777.97;;;12.45;61.51
5651;BME280;40241;52.684;9.758;2023-04-16T07:29:06;101781.47;;;12.46;61.90
5651;BME280;40241;52.684;9.758;2023-04-16T07:31:32;101778.44;;;12.44;61.72
5651;BME280;40241;52.684;9.758;2023-04-16T07:33:57;101788.53;;;12.47;61.66
5651;BME280;40241;52.684;9.758;2023-04-16T07:36:23;101782.03;;;12.50;61.83
5651;BME280;40241;52.684;9.758;2023-04-16T07:38:48;101782.78;;;12.65;61.82
5651;BME280;40241;52.684;9.758;2023-04-16T07:41:14;101786.41;;;12.71;61.43
5651;BME280;40241;52.684;9.758;2023-04-16T07:43:39;101785.16;;;12.72;61.70
5651;BME280;40241;52.684;9.758;2023-04-16T07:46:04;101790.88;;;12.68;61.05
5651;BME280;40241;52.684;9.758;2023-04-16T07:48:30;101797.28;;;12.60;61.41
5651;BME280;40241;52.684;9.758;2023-04-16T07:50:55;101799.44;;;12.56;61.52
5651;BME280;40241;52.684;9.758;2023-04-16T07:53:21;101798.03;;;12.60;61.64
5651;BME280;40241;52.684;9.758;2023-04-16T07:55:47;101798.03;;;12.60;61.56
5651;BME280;40241;52.684;9.758;2023-04-16T07:58:12;101806.91;;;12.64;61.66
5651;BME280;40241;52.684;9.758;2023-04-16T08:00:38;101810.84;;;12.78;61.62
5651;BME280;40241;52.684;9.758;2023-04-16T08:03:03;101803.06;;;12.76;61.35
5651;BME280;40241;52.684;9.758;2023-04-16T08:05:29;101807.69;;;12.85;61.29
5651;BME280;40241;52.684;9.758;2023-04-16T08:07:54;101805.09;;;12.96;61.33
5651;BME280;40241;52.684;9.758;2023-04-16T08:10:20;101819.00;;;13.02;61.13
5651;BME280;40241;52.684;9.758;2023-04-16T08:12:45;101810.75;;;12.87;61.07
5651;BME280;40241;52.684;9.758;2023-04-16T08:15:10;101823.03;;;12.86;61.31
5651;BME280;40241;52.684;9.758;2023-04-16T08:17:36;101818.25;;;12.87;61.28
5651;BME280;40241;52.684;9.758;2023-04-16T08:20:02;101822.19;;;12.80;61.58
5651;BME280;40241;52.684;9.758;2023-04-16T08:22:27;101824.00;;;12.83;61.54
5651;BME280;40241;52.684;9.758;2023-04-16T08:24:52;101836.44;;;12.93;61.57
5651;BME280;40241;52.684;9.758;2023-04-16T08:27:18;101831.50;;;12.97;61.20
5651;BME280;40241;52.684;9.758;2023-04-16T08:29:43;101838.19;;;12.91;61.14
5651;BME280;40241;52.684;9.758;2023-04-16T08:32:09;101830.34;;;12.89;61.14
5651;BME280;40241;52.684;9.758;2023-04-16T08:34:35;101841.69;;;12.91;61.35
5651;BME280;40241;52.684;9.758;2023-04-16T08:37:00;101839.78;;;12.97;61.33
5651;BME280;40241;52.684;9.758;2023-04-16T08:39:26;101840.06;;;12.99;61.25
5651;BME280;40241;52.684;9.758;2023-04-16T08:41:52;101844.44;;;12.91;61.16
5651;BME280;40241;52.684;9.758;2023-04-16T08:44:20;101842.16;;;12.90;61.08
5651;BME280;40241;52.684;9.758;2023-04-16T08:46:50;101849.78;;;12.95;61.28
5651;BME280;40241;52.684;9.758;2023-04-16T08:49:18;101849.56;;;12.98;61.22
5651;BME280;40241;52.684;9.758;2023-04-16T08:51:51;101856.06;;;12.95;61.30
5651;BME280;40241;52.684;9.758;2023-04-16T08:57:50;101860.72;;;12.89;61.10
5651;BME280;40241;52.684;9.758;2023-04-16T09:00:18;101856.19;;;12.86;61.15
5651;BME280;40241;52.684;9.758;2023-04-16T09:02:43;101860.00;;;12.89;61.31
5651;BME280;40241;52.684;9.758;2023-04-16T09:05:09;101866.19;;;12.84;61.19
5651;BME280;40241;52.684;9.758;2023-04-16T09:11:00;101859.88;;;12.83;61.39
5651;BME280;40241;52.684;9.758;2023-04-16T09:13:25;101866.09;;;12.78;61.29
5651;BME280;40241;52.684;9.758;2023-04-16T09:15:52;101864.84;;;12.79;61.45
5651;BME280;40241;52.684;9.758;2023-04-16T09:18:17;101861.72;;;12.86;61.39
5651;BME280;40241;52.684;9.758;2023-04-16T09:20:44;101865.22;;;12.87;61.36
5651;BME280;40241;52.684;9.758;2023-04-16T09:23:10;101870.16;;;12.97;61.32
5651;BME280;40241;52.684;9.758;2023-04-16T09:25:35;101871.69;;;12.98;61.11
5651;BME280;40241;52.684;9.758;2023-04-16T09:28:01;101870.16;;;12.97;61.16
5651;BME280;40241;52.684;9.758;2023-04-16T09:30:27;101869.31;;;12.91;61.25
5651;BME280;40241;52.684;9.758;2023-04-16T09:35:50;101871.19;;;13.00;61.37
5651;BME280;40241;52.684;9.758;2023-04-16T09:38:16;101879.31;;;13.03;61.00
5651;BME280;40241;52.684;9.758;2023-04-16T09:40:42;101875.47;;;13.01;61.37
5651;BME280;40241;52.684;9.758;2023-04-16T09:43:12;101883.50;;;12.99;61.11
5651;BME280;40241;52.684;9.758;2023-04-16T09:45:51;101890.84;;;13.02;61.11
5651;BME280;40241;52.684;9.758;2023-04-16T09:48:27;101884.81;;;13.03;61.00
5651;BME280;40241;52.684;9.758;2023-04-16T09:50:54;101890.66;;;13.05;61.25
5651;BME280;40241;52.684;9.758;2023-04-16T09:53:26;101888.94;;;13.08;61.19
5651;BME280;40241;52.684;9.758;2023-04-16T09:55:55;101892.81;;;13.16;61.11
5651;BME280;40241;52.684;9.758;2023-04-16T09:58:22;101897.69;;;13.21;61.03
5651;BME280;40241;52.684;9.758;2023-04-16T10:00:48;101897.69;;;13.21;61.22
5651;BME280;40241;52.684;9.758;2023-04-16T10:03:14;101898.84;;;13.14;61.00
5651;BME280;40241;52.684;9.758;2023-04-16T10:05:40;101905.41;;;13.17;61.10
5651;BME280;40241;52.684;9.758;2023-04-16T10:08:15;101907.28;;;13.25;60.95
5651;BME280;40241;52.684;9.758;2023-04-16T10:10:41;101908.69;;;13.35;61.03
5651;BME280;40241;52.684;9.758;2023-04-16T10:13:06;101906.31;;;13.43;60.94
5651;BME280;40241;52.684;9.758;2023-04-16T10:15:32;101905.88;;;13.50;60.92
5651;BME280;40241;52.684;9.758;2023-04-16T10:17:58;101905.75;;;13.59;60.58
5651;BME280;40241;52.684;9.758;2023-04-16T10:20:25;101909.28;;;13.60;60.59
5651;BME280;40241;52.684;9.758;2023-04-16T10:22:51;101911.09;;;13.63;60.60
5651;BME280;40241;52.684;9.758;2023-04-16T10:25:18;101920.06;;;13.58;60.62
5651;BME280;40241;52.684;9.758;2023-04-16T10:27:44;101909.28;;;13.60;60.86
5651;BME280;40241;52.684;9.758;2023-04-16T10:30:10;101914.41;;;13.67;60.62
5651;BME280;40241;52.684;9.758;2023-04-16T10:32:37;101912.88;;;13.66;60.83
5651;BME280;40241;52.684;9.758;2023-04-16T10:35:03;101925.34;;;13.76;60.64
5651;BME280;40241;52.684;9.758;2023-04-16T10:37:30;101916.28;;;13.75;60.58
5651;BME280;40241;52.684;9.758;2023-04-16T10:39:57;101915.88;;;13.82;60.48
5651;BME280;40241;52.684;9.758;2023-04-16T10:42:24;101917.38;;;13.83;60.59
5651;BME280;40241;52.684;9.758;2023-04-16T10:44:50;101919.25;;;13.92;60.55
5651;BME280;40241;52.684;9.758;2023-04-16T10:47:15;101916.13;;;14.04;60.51
5651;BME280;40241;52.684;9.758;2023-04-16T10:49:41;101917.16;;;14.07;60.41
5651;BME280;40241;52.684;9.758;2023-04-16T10:52:12;101913.97;;;14.14;60.18
5651;BME280;40241;52.684;9.758;2023-04-16T10:54:39;101924.78;;;14.12;60.24
5651;BME280;40241;52.684;9.758;2023-04-16T10:57:09;101914.88;;;14.25;60.34
5651;BME280;40241;52.684;9.758;2023-04-16T10:59:41;101912.03;;;14.40;60.29
5651;BME280;40241;52.684;9.758;2023-04-16T11:02:15;101911.31;;;14.45;60.11
5651;BME280;40241;52.684;9.758;2023-04-16T11:04:45;101911.97;;;14.60;60.03
5651;BME280;40241;52.684;9.758;2023-04-16T11:09:49;101918.47;;;14.83;59.49
5651;BME280;40241;52.684;9.758;2023-04-16T11:14:50;101915.81;;;15.31;58.92
5651;BME280;40241;52.684;9.758;2023-04-16T11:17:16;101921.50;;;15.47;58.80
5651;BME280;40241;52.684;9.758;2023-04-16T11:19:42;101913.94;;;15.53;58.55
5651;BME280;40241;52.684;9.758;2023-04-16T11:22:11;101922.59;;;15.61;58.70
5651;BME280;40241;52.684;9.758;2023-04-16T11:24:36;101914.25;;;15.61;58.12
5651;BME280;40241;52.684;9.758;2023-04-16T11:27:04;101917.22;;;15.52;58.18
5651;BME280;40241;52.684;9.758;2023-04-16T11:29:30;101919.75;;;15.55;58.54
5651;BME280;40241;52.684;9.758;2023-04-16T11:31:55;101923.09;;;15.65;58.54
5651;BME280;40241;52.684;9.758;2023-04-16T11:34:20;101914.84;;;15.76;58.07
5651;BME280;40241;52.684;9.758;2023-04-16T11:36:48;101923.69;;;15.80;57.50
5651;BME280;40241;52.684;9.758;2023-04-16T11:39:14;101928.91;;;15.67;57.93
5651;BME280;40241;52.684;9.758;2023-04-16T11:44:19;101930.00;;;15.86;57.09
5651;BME280;40241;52.684;9.758;2023-04-16T11:46:44;101924.00;;;15.93;57.72
5651;BME280;40241;52.684;9.758;2023-04-16T11:49:09;101923.75;;;15.97;57.29
5651;BME280;40241;52.684;9.758;2023-04-16T11:51:42;101928.03;;;15.92;57.39
5651;BME280;40241;52.684;9.758;2023-04-16T11:54:08;101924.75;;;15.94;57.66
5651;BME280;40241;52.684;9.758;2023-04-16T11:56:35;101928.03;;;15.98;57.57
5651;BME280;40241;52.684;9.758;2023-04-16T11:59:14;101925.06;;;16.12;56.43
5651;BME280;40241;52.684;9.758;2023-04-16T12:01:41;101923.38;;;16.31;57.37
5651;BME280;40241;52.684;9.758;2023-04-16T12:04:07;101926.41;;;16.39;56.64
5651;BME280;40241;52.684;9.758;2023-04-16T12:06:33;101928.00;;;16.51;56.44
5651;BME280;40241;52.684;9.758;2023-04-16T12:09:22;101920.44;;;16.68;54.85
5651;BME280;40241;52.684;9.758;2023-04-16T12:11:48;101928.25;;;16.81;56.20
5651;BME280;40241;52.684;9.758;2023-04-16T12:14:13;101933.31;;;16.88;55.55
5651;BME280;40241;52.684;9.758;2023-04-16T12:16:38;101935.84;;;16.91;55.97
5651;BME280;40241;52.684;9.758;2023-04-16T12:19:04;101953.03;;;16.90;55.42
5651;BME280;40241;52.684;9.758;2023-04-16T12:21:40;101948.97;;;16.80;53.43
5651;BME280;40241;52.684;9.758;2023-04-16T12:24:07;101932.81;;;16.78;55.46
5651;BME280;40241;52.684;9.758;2023-04-16T12:26:39;101927.50;;;16.91;54.39
5651;BME280;40241;52.684;9.758;2023-04-16T12:31:39;101936.09;;;17.15;55.66
5651;BME280;40241;52.684;9.758;2023-04-16T12:34:05;101924.16;;;17.48;55.58
5651;BME280;40241;52.684;9.758;2023-04-16T12:36:30;101925.41;;;17.64;55.01
5651;BME280;40241;52.684;9.758;2023-04-16T12:38:56;101936.03;;;17.49;54.17
5651;BME280;40241;52.684;9.758;2023-04-16T12:41:21;101938.09;;;17.32;54.86
5651;BME280;40241;52.684;9.758;2023-04-16T12:43:46;101931.53;;;17.18;54.58
5651;BME280;40241;52.684;9.758;2023-04-16T12:46:12;101932.53;;;17.26;54.39
5651;BME280;40241;52.684;9.758;2023-04-16T12:48:37;101932.06;;;17.16;54.41
5651;BME280;40241;52.684;9.758;2023-04-16T12:51:02;101938.63;;;17.08;54.44
5651;BME280;40241;52.684;9.758;2023-04-16T12:53:28;101941.66;;;16.99;54.43
5651;BME280;40241;52.684;9.758;2023-04-16T12:55:53;101938.63;;;16.91;54.71
5651;BME280;40241;52.684;9.758;2023-04-16T12:58:19;101940.13;;;16.87;54.87
5651;BME280;40241;52.684;9.758;2023-04-16T13:00:44;101951.25;;;16.76;54.60
5651;BME280;40241;52.684;9.758;2023-04-16T13:03:09;101944.41;;;16.60;54.72
5651;BME280;40241;52.684;9.758;2023-04-16T13:05:35;101950.66;;;16.49;55.04
5651;BME280;40241;52.684;9.758;2023-04-16T13:08:00;101943.84;;;16.45;54.92
5651;BME280;40241;52.684;9.758;2023-04-16T13:10:26;101951.66;;;16.41;54.86
5651;BME280;40241;52.684;9.758;2023-04-16T13:12:52;101950.66;;;16.44;55.10
5651;BME280;40241;52.684;9.758;2023-04-16T13:15:17;101957.25;;;16.46;55.24